Hovedside
METAR-TAF:

METAR-TAF

Lufthavner :

Aalborg lufthavn

Aalborg, Danmark

breddegrad: 57-06N, lengdegrad: 009-51E, høyde over havet: 3 m

Gjeldene værobservasjon

Denne rapporten ble laget for 20 minutter siden, klokken 04:50 UTC
Vind 7 kt fra Vest-nordvest
Temperatur 5°C
Luftfuktighet 70%
Trykk 1020 hPa
Sikt 10 km eller mer

METAR: EKYT 090450Z AUTO 30007KT 9999 NCD 05/00 Q1020

Tid: 07:10 (05:10 UTC)

Varsel

Denne rapporten ble laget for 2 timer og 48 minutter siden, klokken 02:22 UTC
Varsel gyldig fra 09. klokken 03 UTC til 10. klokken 03 UTC
Vind 12 kt fra Vest-nordvest
Sikt 10 km eller mer
Brutte skyer i en høyde av 1000 ft
Blir
fra 09. klokken 03 UTC til 09. klokken 04 UTC
Få skyer i en høyde av 2000 ft
Midlertidig
fra 09. klokken 07 UTC til 09. klokken 15 UTC
Vind 18 kt fra Nordvest med vindkast opp mot 28 kt

TAF: EKYT 090222Z 0903/1003 30012KT 9999 BKN010 BECMG 0903/0904 FEW020 TEMPO 0907/0915 31018G28KT

Værobservasjoner og værvarsel for over 4000 flyplasser (METAR- og TAF-rapporter).

Tilgjengelige stasjoner er representert av de røde og gule prikkene på kartet.

Hold musepekeren over prikken for å se navnet på stasjonen.

Klikk så for å se værobservasjoner og -varsler.

For å forandre kartet kan du klikke på den grønne knappen med svart kryss for å zoome inn, på den grønne knappen med strek for å zoome ut, eller på de grønne pilene for å se tilstøtende kart.


METAR-TAF: